Time;durP1;ratioP1;P1;durP2;ratioP2;P2;SDS_P1;SDS_P2;PMS_P1;PMS_P2;Temp;Humidity;BMP_temperature;BMP_pressure;BME280_temperature;BME280_humidity;BME280_pressure;Samples;Min_cycle;Max_cycle;Signal;HPM_P1;HPM_P2
2022/02/12 00:01:06;;;;;;;71.15;42.92;;;;;;;;;;5069496;28;20405;-90
2022/02/12 00:03:33;;;;;;;74.82;43.45;;;;;;;;;;5065267;28;20417;-89
2022/02/12 00:06:01;;;;;;;67.97;42.15;;;;;;;;;;5069812;28;20500;-88
2022/02/12 00:08:27;;;;;;;67.65;42.35;;;;;;;;;;5068682;28;20413;-90
2022/02/12 00:10:54;;;;;;;65.60;39.35;;;;;;;;;;5064173;28;20463;-89
2022/02/12 00:13:21;;;;;;;66.38;39.30;;;;;;;;;;5069068;28;20413;-89
2022/02/12 00:15:50;;;;;;;59.53;37.00;;;;;;;;;;5068296;28;21055;-89
2022/02/12 00:18:17;;;;;;;58.38;37.25;;;;;;;;;;5068126;28;20417;-88
2022/02/12 00:20:47;;;;;;;61.80;38.53;;;;;;;;;;5065317;28;20407;-88
2022/02/12 00:23:16;;;;;;;54.35;35.63;;;;;;;;;;5071016;28;20445;-88
2022/02/12 00:25:43;;;;;;;59.47;37.00;;;;;;;;;;5060549;28;20444;-87
2022/02/12 00:28:10;;;;;;;56.78;36.47;;;;;;;;;;5066113;28;20490;-87
2022/02/12 00:30:38;;;;;;;59.15;36.80;;;;;;;;;;5066576;28;20499;-88
2022/02/12 00:33:09;;;;;;;61.33;38.28;;;;;;;;;;5065957;28;20433;-87
2022/02/12 00:35:36;;;;;;;61.80;37.72;;;;;;;;;;5065055;28;20885;-88
2022/02/12 00:38:03;;;;;;;56.33;35.17;;;;;;;;;;5067907;28;20397;-90
2022/02/12 00:40:30;;;;;;;56.30;35.13;;;;;;;;;;5067672;28;20406;-87
2022/02/12 00:42:57;;;;;;;51.63;32.53;;;;;;;;;;5062605;28;20433;-87
2022/02/12 00:45:24;;;;;;;51.15;30.80;;;;;;;;;;5064603;28;20407;-89
2022/02/12 00:47:51;;;;;;;50.70;31.50;;;;;;;;;;5067626;28;20410;-88
2022/02/12 00:50:19;;;;;;;48.03;29.67;;;;;;;;;;5068565;28;20420;-88
2022/02/12 00:52:46;;;;;;;45.55;28.58;;;;;;;;;;5065535;28;20433;-91
2022/02/12 00:55:13;;;;;;;47.17;29.90;;;;;;;;;;5068431;28;20406;-87
2022/02/12 00:57:40;;;;;;;44.70;27.60;;;;;;;;;;5067045;28;20410;-88
2022/02/12 01:00:08;;;;;;;40.72;26.23;;;;;;;;;;5065897;28;20885;-88
2022/02/12 01:02:35;;;;;;;41.80;24.45;;;;;;;;;;5048296;28;20406;-90
2022/02/12 01:05:02;;;;;;;42.50;25.67;;;;;;;;;;5065795;28;20475;-89
2022/02/12 01:07:31;;;;;;;38.22;25.30;;;;;;;;;;5049623;28;20414;-89
2022/02/12 01:09:58;;;;;;;36.03;22.77;;;;;;;;;;5049572;28;20414;-91
2022/02/12 01:12:25;;;;;;;33.83;21.70;;;;;;;;;;5066672;28;20398;-88
2022/02/12 01:14:51;;;;;;;33.33;22.42;;;;;;;;;;5066881;28;20939;-88
2022/02/12 01:17:18;;;;;;;30.75;20.73;;;;;;;;;;5066982;28;20444;-89
2022/02/12 01:19:48;;;;;;;34.50;21.38;;;;;;;;;;5067018;28;20425;-88
2022/02/12 01:22:16;;;;;;;30.25;18.67;;;;;;;;;;5066335;28;20410;-88
2022/02/12 01:24:45;;;;;;;23.17;13.90;;;;;;;;;;5049189;28;20774;-90
2022/02/12 01:27:12;;;;;;;21.83;14.30;;;;;;;;;;5067056;28;20479;-90
2022/02/12 01:29:38;;;;;;;21.45;13.90;;;;;;;;;;5065774;28;20406;-91
2022/02/12 01:32:06;;;;;;;21.13;13.23;;;;;;;;;;5067859;28;20402;-90
2022/02/12 01:34:33;;;;;;;25.23;13.65;;;;;;;;;;5058183;28;20455;-90
2022/02/12 01:37:01;;;;;;;20.73;13.50;;;;;;;;;;5068286;28;20409;-90
2022/02/12 01:39:28;;;;;;;19.50;11.60;;;;;;;;;;5069727;28;20409;-89
2022/02/12 01:41:57;;;;;;;17.55;10.75;;;;;;;;;;5035134;28;20407;-89
2022/02/12 01:44:30;;;;;;;17.50;10.45;;;;;;;;;;5069649;28;20405;-92
2022/02/12 01:46:57;;;;;;;17.63;11.38;;;;;;;;;;5087855;28;20422;-91
2022/02/12 01:49:25;;;;;;;16.42;10.85;;;;;;;;;;5090264;28;20461;-89
2022/02/12 01:51:52;;;;;;;17.48;11.25;;;;;;;;;;5090748;28;20389;-91
2022/02/12 01:54:20;;;;;;;16.17;10.60;;;;;;;;;;5075286;28;20440;-87
2022/02/12 01:56:47;;;;;;;16.35;10.23;;;;;;;;;;5048681;28;20479;-89
2022/02/12 01:59:16;;;;;;;17.05;10.48;;;;;;;;;;5049404;28;20428;-91
2022/02/12 02:01:43;;;;;;;18.63;11.23;;;;;;;;;;5066960;28;20410;-89
2022/02/12 02:04:10;;;;;;;20.25;11.77;;;;;;;;;;5067175;28;20414;-87
2022/02/12 02:06:38;;;;;;;20.70;12.90;;;;;;;;;;5063134;28;20413;-88
2022/02/12 02:09:06;;;;;;;23.42;14.68;;;;;;;;;;5048229;28;20390;-87
2022/02/12 02:11:33;;;;;;;25.58;15.57;;;;;;;;;;5064149;28;20428;-88
2022/02/12 02:14:00;;;;;;;22.80;15.13;;;;;;;;;;5067118;28;20402;-89
2022/02/12 02:16:28;;;;;;;23.00;15.10;;;;;;;;;;5067260;28;21137;-88
2022/02/12 02:18:55;;;;;;;23.80;14.38;;;;;;;;;;5067147;28;20402;-88
2022/02/12 02:21:24;;;;;;;20.58;13.63;;;;;;;;;;5059189;28;20438;-88
2022/02/12 02:23:52;;;;;;;21.77;13.38;;;;;;;;;;5048805;28;20451;-89
2022/02/12 02:26:19;;;;;;;22.27;13.05;;;;;;;;;;5066490;28;20817;-91
2022/02/12 02:28:46;;;;;;;20.70;12.80;;;;;;;;;;5066481;28;20398;-89
2022/02/12 02:31:14;;;;;;;17.77;11.50;;;;;;;;;;5065131;28;20508;-88
2022/02/12 02:33:41;;;;;;;18.17;10.82;;;;;;;;;;5064887;28;20406;-90
2022/02/12 02:36:08;;;;;;;19.42;11.20;;;;;;;;;;5052609;28;20402;-89
2022/02/12 02:38:35;;;;;;;17.98;10.75;;;;;;;;;;5070728;28;20459;-90
2022/02/12 02:41:04;;;;;;;16.48;10.73;;;;;;;;;;5066758;28;20406;-88
2022/02/12 02:43:30;;;;;;;16.20;11.02;;;;;;;;;;5065757;28;20840;-88
2022/02/12 02:45:58;;;;;;;15.70;9.90;;;;;;;;;;5070093;28;20452;-89
2022/02/12 02:48:25;;;;;;;15.43;9.63;;;;;;;;;;5052410;28;20432;-88
2022/02/12 02:56:36;;;;;;;14.93;9.07;;;;;;;;;;5008500;28;20410;-89
2022/02/12 02:59:04;;;;;;;16.17;9.75;;;;;;;;;;5004153;28;20941;-88
2022/02/12 03:01:31;;;;;;;13.25;8.65;;;;;;;;;;5019702;28;20428;-88
2022/02/12 03:03:58;;;;;;;18.05;8.60;;;;;;;;;;5070053;28;20418;-89
2022/02/12 03:06:27;;;;;;;16.83;8.82;;;;;;;;;;5070625;28;20428;-89
2022/02/12 03:08:54;;;;;;;12.13;8.33;;;;;;;;;;5052495;28;20402;-87
2022/02/12 03:11:21;;;;;;;14.05;8.20;;;;;;;;;;5070267;28;20402;-88
2022/02/12 03:13:52;;;;;;;13.50;8.40;;;;;;;;;;5070172;28;20436;-88
2022/02/12 03:16:19;;;;;;;12.93;7.32;;;;;;;;;;5070063;28;20402;-90
2022/02/12 03:18:49;;;;;;;13.85;8.00;;;;;;;;;;5070491;28;20452;-89
2022/02/12 03:21:16;;;;;;;14.30;8.18;;;;;;;;;;5070511;28;20485;-87
2022/02/12 03:23:44;;;;;;;12.38;7.72;;;;;;;;;;5070489;28;20429;-88
2022/02/12 03:26:11;;;;;;;12.13;7.47;;;;;;;;;;5070033;28;20466;-88
2022/02/12 03:28:38;;;;;;;12.77;7.35;;;;;;;;;;5051990;28;20398;-87
2022/02/12 03:31:06;;;;;;;12.98;7.55;;;;;;;;;;5070477;28;20414;-88
2022/02/12 03:33:34;;;;;;;12.15;7.30;;;;;;;;;;5061654;28;20467;-89
2022/02/12 03:36:01;;;;;;;10.80;6.82;;;;;;;;;;5064009;28;20399;-89
2022/02/12 03:38:29;;;;;;;13.85;7.05;;;;;;;;;;5061276;28;20456;-89
2022/02/12 03:41:00;;;;;;;14.15;6.78;;;;;;;;;;5070239;28;20402;-88
2022/02/12 03:43:28;;;;;;;10.30;6.57;;;;;;;;;;5070082;28;20889;-91
2022/02/12 03:45:57;;;;;;;11.70;6.25;;;;;;;;;;5069553;28;20402;-88
2022/02/12 03:48:26;;;;;;;8.93;6.10;;;;;;;;;;5052201;28;20513;-90
2022/02/12 03:50:53;;;;;;;11.90;6.95;;;;;;;;;;5070113;28;20409;-88
2022/02/12 03:53:21;;;;;;;8.27;5.85;;;;;;;;;;5069657;28;20905;-88
2022/02/12 03:55:48;;;;;;;9.52;6.22;;;;;;;;;;5069239;28;20410;-91
2022/02/12 03:58:17;;;;;;;10.23;6.47;;;;;;;;;;5069790;28;20447;-88
2022/02/12 04:00:46;;;;;;;9.23;6.23;;;;;;;;;;5070052;28;20398;-89
2022/02/12 04:03:13;;;;;;;10.23;6.10;;;;;;;;;;5069500;28;20505;-88
2022/02/12 04:05:43;;;;;;;11.98;6.88;;;;;;;;;;5052074;28;20765;-88
2022/02/12 04:08:10;;;;;;;13.63;7.20;;;;;;;;;;5069661;28;20766;-89
2022/02/12 04:10:37;;;;;;;11.23;6.60;;;;;;;;;;5069986;28;20417;-88
2022/02/12 04:13:04;;;;;;;10.95;7.00;;;;;;;;;;5051953;28;20409;-88
2022/02/12 04:15:32;;;;;;;14.77;7.70;;;;;;;;;;5069414;28;20815;-88
2022/02/12 04:17:59;;;;;;;14.63;8.57;;;;;;;;;;5051445;28;20413;-90
2022/02/12 04:20:27;;;;;;;14.15;9.00;;;;;;;;;;5069728;28;20418;-89
2022/02/12 04:22:55;;;;;;;16.55;10.02;;;;;;;;;;5067917;28;20394;-89
2022/02/12 04:25:24;;;;;;;16.45;10.15;;;;;;;;;;5068878;28;20906;-91
2022/02/12 04:27:51;;;;;;;18.88;11.50;;;;;;;;;;5069238;28;20413;-89
2022/02/12 04:30:18;;;;;;;19.67;12.40;;;;;;;;;;5069829;28;20410;-88
2022/02/12 04:32:46;;;;;;;20.75;13.70;;;;;;;;;;5069622;28;20409;-87
2022/02/12 04:35:15;;;;;;;24.40;14.30;;;;;;;;;;5069940;28;20612;-90
2022/02/12 04:37:43;;;;;;;23.70;15.38;;;;;;;;;;5059454;28;20410;-87
2022/02/12 04:40:13;;;;;;;25.77;16.33;;;;;;;;;;5070232;28;20510;-88
2022/02/12 04:42:40;;;;;;;30.13;17.52;;;;;;;;;;5077992;28;20410;-88
2022/02/12 04:45:08;;;;;;;55.60;26.65;;;;;;;;;;5089335;28;20418;-88
2022/02/12 04:47:36;;;;;;;42.28;21.55;;;;;;;;;;5087898;28;20386;-91
2022/02/12 04:50:04;;;;;;;35.43;20.00;;;;;;;;;;5084121;28;20421;-89
2022/02/12 04:52:32;;;;;;;28.70;18.40;;;;;;;;;;5069243;28;20414;-87
2022/02/12 04:54:59;;;;;;;28.42;18.17;;;;;;;;;;5068100;28;20493;-89
2022/02/12 04:57:27;;;;;;;27.40;17.40;;;;;;;;;;5068881;28;20451;-89
2022/02/12 04:59:54;;;;;;;27.30;16.90;;;;;;;;;;5068887;28;20405;-88
2022/02/12 05:02:23;;;;;;;27.47;17.30;;;;;;;;;;5068423;28;21157;-88
2022/02/12 05:04:50;;;;;;;27.95;17.17;;;;;;;;;;5047963;28;20417;-89
2022/02/12 05:07:17;;;;;;;29.33;17.67;;;;;;;;;;5065170;28;20471;-88
2022/02/12 05:09:43;;;;;;;29.20;17.42;;;;;;;;;;5068318;28;20456;-89
2022/02/12 05:12:11;;;;;;;28.60;17.70;;;;;;;;;;5061605;28;20898;-88
2022/02/12 05:14:40;;;;;;;28.27;16.92;;;;;;;;;;5051183;28;20459;-90
2022/02/12 05:17:07;;;;;;;27.60;17.83;;;;;;;;;;5068049;28;20410;-89
2022/02/12 05:19:33;;;;;;;29.90;18.03;;;;;;;;;;5066862;28;20410;-90
2022/02/12 05:22:00;;;;;;;30.05;17.65;;;;;;;;;;5068677;28;20460;-88
2022/02/12 05:24:27;;;;;;;28.80;17.23;;;;;;;;;;5066954;28;20418;-89
2022/02/12 05:26:54;;;;;;;25.77;16.67;;;;;;;;;;5072159;28;20406;-91
2022/02/12 05:29:21;;;;;;;26.95;16.95;;;;;;;;;;5091792;28;20424;-88
2022/02/12 05:31:50;;;;;;;27.13;16.80;;;;;;;;;;5091690;28;20416;-90
2022/02/12 05:34:17;;;;;;;26.65;17.17;;;;;;;;;;5089441;28;20402;-88
2022/02/12 05:36:44;;;;;;;26.48;16.83;;;;;;;;;;5071112;28;20424;-91
2022/02/12 05:39:12;;;;;;;26.33;17.17;;;;;;;;;;5090724;28;20397;-90
2022/02/12 05:41:39;;;;;;;28.08;17.23;;;;;;;;;;5077142;28;20394;-91
2022/02/12 05:44:06;;;;;;;24.27;16.58;;;;;;;;;;5094202;28;20394;-90
2022/02/12 05:46:34;;;;;;;24.10;16.30;;;;;;;;;;5073375;28;20398;-89
2022/02/12 05:49:04;;;;;;;26.10;16.33;;;;;;;;;;5059981;28;20398;-89
2022/02/12 05:51:31;;;;;;;26.63;16.58;;;;;;;;;;5065993;28;20403;-89
2022/02/12 05:54:00;;;;;;;25.35;16.17;;;;;;;;;;5074675;28;20436;-88
2022/02/12 05:56:27;;;;;;;25.08;16.35;;;;;;;;;;5069088;28;20399;-91
2022/02/12 05:58:54;;;;;;;25.48;16.02;;;;;;;;;;5070013;28;20410;-89
2022/02/12 06:01:21;;;;;;;24.25;15.20;;;;;;;;;;5063201;28;20406;-87
2022/02/12 06:03:48;;;;;;;25.58;15.32;;;;;;;;;;5058896;28;20436;-90
2022/02/12 06:06:18;;;;;;;24.25;15.90;;;;;;;;;;5069353;28;20740;-90
2022/02/12 06:08:45;;;;;;;24.35;15.15;;;;;;;;;;5067216;28;20410;-88
2022/02/12 06:11:12;;;;;;;24.95;15.63;;;;;;;;;;5071358;28;20406;-89
2022/02/12 06:13:40;;;;;;;24.65;15.75;;;;;;;;;;5067337;28;20445;-88
2022/02/12 06:16:07;;;;;;;25.08;15.38;;;;;;;;;;5062915;28;20407;-90
2022/02/12 06:18:34;;;;;;;24.27;15.20;;;;;;;;;;5066970;28;20904;-89
2022/02/12 06:21:06;;;;;;;23.60;14.57;;;;;;;;;;5067502;28;20452;-90
2022/02/12 06:23:36;;;;;;;24.92;15.10;;;;;;;;;;5064765;28;20643;-87
2022/02/12 06:26:03;;;;;;;22.83;14.55;;;;;;;;;;5065458;28;20401;-88
2022/02/12 06:28:30;;;;;;;24.87;15.37;;;;;;;;;;5033386;28;20398;-89
2022/02/12 06:30:57;;;;;;;24.65;14.90;;;;;;;;;;5050297;28;20448;-88
2022/02/12 06:33:24;;;;;;;21.70;14.43;;;;;;;;;;5062451;28;20429;-88
2022/02/12 06:35:51;;;;;;;22.77;14.70;;;;;;;;;;5065806;28;20766;-89
2022/02/12 06:38:18;;;;;;;23.15;14.88;;;;;;;;;;5048580;28;20483;-88
2022/02/12 06:40:48;;;;;;;24.88;15.65;;;;;;;;;;5066623;28;20959;-88
2022/02/12 06:43:15;;;;;;;24.38;15.07;;;;;;;;;;5065490;28;20912;-88
2022/02/12 06:45:42;;;;;;;25.10;14.55;;;;;;;;;;5069547;28;20475;-86
2022/02/12 06:48:09;;;;;;;24.90;14.95;;;;;;;;;;5046286;28;20474;-88
2022/02/12 06:50:36;;;;;;;23.55;14.20;;;;;;;;;;5069365;28;20933;-87
2022/02/12 06:53:03;;;;;;;24.77;15.02;;;;;;;;;;5068797;28;20414;-86
2022/02/12 06:55:30;;;;;;;23.65;14.27;;;;;;;;;;5066650;28;20833;-88
2022/02/12 06:57:58;;;;;;;21.00;13.93;;;;;;;;;;5068572;28;20406;-86
2022/02/12 07:00:25;;;;;;;27.63;15.57;;;;;;;;;;5070152;28;20731;-86
2022/02/12 07:02:52;;;;;;;26.02;15.10;;;;;;;;;;5068610;28;20398;-88
2022/02/12 07:05:19;;;;;;;25.35;14.60;;;;;;;;;;5064287;28;20471;-86
2022/02/12 07:07:48;;;;;;;26.08;14.52;;;;;;;;;;5068790;28;21092;-87
2022/02/12 07:10:16;;;;;;;24.27;14.95;;;;;;;;;;5068147;28;20398;-86
2022/02/12 07:12:43;;;;;;;24.38;14.90;;;;;;;;;;5047172;28;20913;-87
2022/02/12 07:15:12;;;;;;;27.08;15.90;;;;;;;;;;5068744;28;20410;-88
2022/02/12 07:17:40;;;;;;;24.63;15.15;;;;;;;;;;5068733;28;20410;-87
2022/02/12 07:20:08;;;;;;;26.25;16.10;;;;;;;;;;5068775;28;20464;-87
2022/02/12 07:22:35;;;;;;;28.27;16.63;;;;;;;;;;5069587;28;20402;-88
2022/02/12 07:25:03;;;;;;;25.95;15.80;;;;;;;;;;5049727;28;20418;-85
2022/02/12 07:27:31;;;;;;;25.10;15.90;;;;;;;;;;5066603;28;20426;-86
2022/02/12 07:29:58;;;;;;;23.30;14.55;;;;;;;;;;5069723;28;20497;-86
2022/02/12 07:32:27;;;;;;;26.03;15.20;;;;;;;;;;5069721;28;20484;-86
2022/02/12 07:34:54;;;;;;;22.13;14.82;;;;;;;;;;5069785;28;20418;-86
2022/02/12 07:37:21;;;;;;;22.83;14.80;;;;;;;;;;5065976;28;20473;-87
2022/02/12 07:39:49;;;;;;;21.52;14.15;;;;;;;;;;5076290;28;20424;-89
2022/02/12 07:42:16;;;;;;;22.23;13.77;;;;;;;;;;5079405;28;20426;-89
2022/02/12 07:44:43;;;;;;;21.95;13.60;;;;;;;;;;5092813;28;20432;-88
2022/02/12 07:47:10;;;;;;;23.08;13.68;;;;;;;;;;5077382;28;20444;-87
2022/02/12 07:49:38;;;;;;;20.05;12.88;;;;;;;;;;5068185;28;20390;-87
2022/02/12 07:52:06;;;;;;;21.10;13.37;;;;;;;;;;5066381;28;20532;-88
2022/02/12 07:54:33;;;;;;;22.05;13.30;;;;;;;;;;5068155;28;20408;-85
2022/02/12 07:56:59;;;;;;;21.33;13.55;;;;;;;;;;5067758;28;20413;-87
2022/02/12 07:59:27;;;;;;;22.17;13.73;;;;;;;;;;5068531;28;20409;-88
2022/02/12 08:01:54;;;;;;;20.80;13.82;;;;;;;;;;5065870;28;20479;-87
2022/02/12 08:04:20;;;;;;;21.27;13.48;;;;;;;;;;5067859;28;20410;-86
2022/02/12 08:09:33;;;;;;;22.20;13.63;;;;;;;;;;5064406;28;20394;-88
2022/02/12 08:12:13;;;;;;;23.38;14.45;;;;;;;;;;5066545;28;20398;-87
2022/02/12 08:14:42;;;;;;;21.03;12.80;;;;;;;;;;5060522;28;20390;-87
2022/02/12 08:17:09;;;;;;;23.67;14.52;;;;;;;;;;5066455;28;20497;-86
2022/02/12 08:19:37;;;;;;;20.73;13.25;;;;;;;;;;5067070;28;20398;-87
2022/02/12 08:22:13;;;;;;;20.65;13.60;;;;;;;;;;5047371;28;20489;-87
2022/02/12 08:24:41;;;;;;;20.92;12.98;;;;;;;;;;5064710;28;20410;-87
2022/02/12 08:27:09;;;;;;;22.70;13.00;;;;;;;;;;5065261;28;20452;-87
2022/02/12 08:29:37;;;;;;;21.23;13.00;;;;;;;;;;5062320;28;20778;-87
2022/02/12 08:32:06;;;;;;;20.67;12.65;;;;;;;;;;5066826;28;20417;-87
2022/02/12 08:34:34;;;;;;;17.43;11.93;;;;;;;;;;5066561;28;21255;-88
2022/02/12 08:37:01;;;;;;;19.80;11.00;;;;;;;;;;5062735;28;20417;-89
2022/02/12 08:39:29;;;;;;;17.67;11.27;;;;;;;;;;5060957;28;20739;-89
2022/02/12 08:41:56;;;;;;;17.90;10.55;;;;;;;;;;5058812;28;20424;-89
2022/02/12 08:44:23;;;;;;;13.02;9.23;;;;;;;;;;5065027;28;20486;-87
2022/02/12 08:46:50;;;;;;;13.43;8.93;;;;;;;;;;5056590;28;20881;-90
2022/02/12 08:49:17;;;;;;;13.88;8.57;;;;;;;;;;5061692;28;20406;-88
2022/02/12 08:51:46;;;;;;;13.20;7.93;;;;;;;;;;5065717;28;20414;-88
2022/02/12 08:54:14;;;;;;;11.38;7.40;;;;;;;;;;5055474;28;20398;-87
2022/02/12 08:56:43;;;;;;;7.95;4.55;;;;;;;;;;5058643;28;20406;-85
2022/02/12 08:59:11;;;;;;;7.50;5.03;;;;;;;;;;5046392;28;20448;-90
2022/02/12 09:01:40;;;;;;;4.53;3.35;;;;;;;;;;5058737;28;20402;-88
2022/02/12 09:04:09;;;;;;;4.80;3.63;;;;;;;;;;5059926;28;20955;-88
2022/02/12 09:06:36;;;;;;;5.53;3.22;;;;;;;;;;5059101;28;20452;-89
2022/02/12 09:09:04;;;;;;;4.72;2.90;;;;;;;;;;5061141;28;20402;-93
2022/02/12 09:11:31;;;;;;;6.28;2.90;;;;;;;;;;5064987;28;20913;-88
2022/02/12 09:14:00;;;;;;;4.82;2.58;;;;;;;;;;5063811;28;20406;-88
2022/02/12 09:16:27;;;;;;;3.92;2.67;;;;;;;;;;5064395;28;20400;-87
2022/02/12 09:18:54;;;;;;;4.50;2.70;;;;;;;;;;5064948;28;20469;-88
2022/02/12 09:21:23;;;;;;;4.85;2.65;;;;;;;;;;5064201;28;20801;-86
2022/02/12 09:23:50;;;;;;;4.75;2.80;;;;;;;;;;5062764;28;20739;-87
2022/02/12 09:26:19;;;;;;;2.83;2.45;;;;;;;;;;5067531;28;20429;-89
2022/02/12 09:28:47;;;;;;;3.70;2.47;;;;;;;;;;5047758;28;20402;-88
2022/02/12 09:31:19;;;;;;;4.27;2.50;;;;;;;;;;5065273;28;21281;-87
2022/02/12 09:33:46;;;;;;;3.92;2.50;;;;;;;;;;5064932;28;20711;-88
2022/02/12 09:36:13;;;;;;;3.42;2.30;;;;;;;;;;5046011;28;20803;-87
2022/02/12 09:38:40;;;;;;;3.97;2.53;;;;;;;;;;5062754;28;20402;-86
2022/02/12 09:41:07;;;;;;;3.20;2.33;;;;;;;;;;5063838;28;20477;-88
2022/02/12 09:43:34;;;;;;;4.18;2.70;;;;;;;;;;5063035;28;20398;-88
2022/02/12 09:46:41;;;;;;;4.70;2.58;;;;;;;;;;5064543;28;20413;-86
2022/02/12 09:49:08;;;;;;;3.00;2.10;;;;;;;;;;5004651;28;20441;-87
2022/02/12 09:51:37;;;;;;;2.55;1.73;;;;;;;;;;5063391;28;20401;-87
2022/02/12 09:54:04;;;;;;;3.20;1.80;;;;;;;;;;5044303;28;20488;-88
2022/02/12 09:56:31;;;;;;;2.20;1.35;;;;;;;;;;5047524;28;20450;-88
2022/02/12 09:58:58;;;;;;;3.45;1.25;;;;;;;;;;5046829;28;20493;-88
2022/02/12 10:01:25;;;;;;;3.67;1.85;;;;;;;;;;5065134;28;20406;-86
2022/02/12 10:03:53;;;;;;;1.80;1.20;;;;;;;;;;5058982;28;20453;-88
2022/02/12 10:06:39;;;;;;;3.88;1.10;;;;;;;;;;5065066;28;20413;-86
2022/02/12 10:09:07;;;;;;;2.30;1.40;;;;;;;;;;5063256;28;20536;-89
2022/02/12 10:11:42;;;;;;;2.67;1.20;;;;;;;;;;5065835;28;20478;-86
2022/02/12 10:14:10;;;;;;;2.00;1.40;;;;;;;;;;5063384;28;20454;-75
2022/02/12 10:16:55;;;;;;;3.55;1.50;;;;;;;;;;5064752;28;20445;-86
2022/02/12 10:19:35;;;;;;;2.63;1.80;;;;;;;;;;5063404;28;20402;-86
2022/02/12 10:22:10;;;;;;;2.70;1.70;;;;;;;;;;5064432;28;20979;-87
2022/02/12 10:24:54;;;;;;;3.25;1.70;;;;;;;;;;5063932;28;20414;-87
2022/02/12 10:27:25;;;;;;;1.40;1.20;;;;;;;;;;5062100;28;20390;-86
2022/02/12 10:29:54;;;;;;;2.10;1.20;;;;;;;;;;5061683;28;20505;-87
2022/02/12 10:32:23;;;;;;;2.10;1.10;;;;;;;;;;5061468;28;20448;-88
2022/02/12 10:34:53;;;;;;;3.63;1.10;;;;;;;;;;5062423;28;20402;-88
2022/02/12 10:37:23;;;;;;;2.03;1.20;;;;;;;;;;5064827;28;21039;-87
2022/02/12 10:39:53;;;;;;;2.22;1.48;;;;;;;;;;5065449;28;20486;-88
2022/02/12 10:42:21;;;;;;;3.47;1.20;;;;;;;;;;5065872;28;20964;-86
2022/02/12 10:44:49;;;;;;;2.03;1.30;;;;;;;;;;5066122;28;20813;-86
2022/02/12 10:47:17;;;;;;;1.87;1.20;;;;;;;;;;5065726;28;21021;-87
2022/02/12 10:49:46;;;;;;;2.47;1.27;;;;;;;;;;5048190;28;20406;-87
2022/02/12 10:52:19;;;;;;;4.32;1.42;;;;;;;;;;5063713;28;20918;-89
2022/02/12 10:54:46;;;;;;;2.92;1.42;;;;;;;;;;5068578;28;20531;-86
2022/02/12 10:57:14;;;;;;;1.57;1.30;;;;;;;;;;5069287;28;20530;-86
2022/02/12 10:59:44;;;;;;;1.60;1.30;;;;;;;;;;5068890;28;20404;-71
2022/02/12 11:02:15;;;;;;;3.00;1.65;;;;;;;;;;5067268;28;20446;-78
2022/02/12 11:04:44;;;;;;;9.70;5.47;;;;;;;;;;5068227;28;20485;-78
2022/02/12 11:07:17;;;;;;;6.53;3.33;;;;;;;;;;5066869;28;20543;-83
2022/02/12 11:09:45;;;;;;;11.25;7.70;;;;;;;;;;5067846;28;20454;-73
2022/02/12 11:12:13;;;;;;;29.83;17.80;;;;;;;;;;5067101;28;20469;-78
2022/02/12 11:14:40;;;;;;;43.35;23.42;;;;;;;;;;5068294;28;20434;-79
2022/02/12 11:17:12;;;;;;;38.90;23.85;;;;;;;;;;5075518;28;20426;-82
2022/02/12 11:19:39;;;;;;;17.80;10.85;;;;;;;;;;5077141;28;21147;-83
2022/02/12 11:22:09;;;;;;;56.38;26.77;;;;;;;;;;5065258;28;20398;-85
2022/02/12 11:24:39;;;;;;;22.33;3.75;;;;;;;;;;5067944;28;20811;-79
2022/02/12 11:27:20;;;;;;;41.53;16.15;;;;;;;;;;5064881;28;20527;-86
2022/02/12 11:29:50;;;;;;;58.08;38.35;;;;;;;;;;5066606;28;20478;-82
2022/02/12 11:32:19;;;;;;;60.50;34.60;;;;;;;;;;5062923;28;20424;-83
2022/02/12 11:35:17;;;;;;;1.92;1.13;;;;;;;;;;5067010;28;20965;-76
2022/02/12 11:37:47;;;;;;;3.92;3.35;;;;;;;;;;5067229;28;20500;-80
2022/02/12 11:40:20;;;;;;;19.98;17.20;;;;;;;;;;5064827;28;21319;-80
2022/02/12 11:42:48;;;;;;;2.35;1.58;;;;;;;;;;5065560;28;20480;-80
2022/02/12 11:45:25;;;;;;;18.05;5.93;;;;;;;;;;5066355;28;20446;-84
2022/02/12 11:48:17;;;;;;;50.63;30.30;;;;;;;;;;5065286;28;20563;-86
2022/02/12 11:50:50;;;;;;;15.40;7.55;;;;;;;;;;5046599;28;20398;-83
2022/02/12 11:53:40;;;;;;;2.13;0.98;;;;;;;;;;5049089;28;20470;-85
2022/02/12 11:56:52;;;;;;;2.10;1.05;;;;;;;;;;5064812;28;20443;-85
2022/02/12 11:59:21;;;;;;;1.42;1.00;;;;;;;;;;5049612;28;20460;-85
2022/02/12 12:01:55;;;;;;;1.67;0.90;;;;;;;;;;5067135;28;20939;-84
2022/02/12 12:04:24;;;;;;;1.83;1.02;;;;;;;;;;5066941;28;20478;-80
2022/02/12 12:07:12;;;;;;;4.38;2.30;;;;;;;;;;5067026;28;20421;-81
2022/02/12 12:09:58;;;;;;;3.97;1.92;;;;;;;;;;5065594;28;20495;-83
2022/02/12 12:12:27;;;;;;;1.60;0.80;;;;;;;;;;5063943;28;20475;-85
2022/02/12 12:15:15;;;;;;;1.23;0.70;;;;;;;;;;5064498;28;20462;-84
2022/02/12 12:17:42;;;;;;;2.60;1.00;;;;;;;;;;5066044;28;20974;-85
2022/02/12 12:20:13;;;;;;;2.60;0.90;;;;;;;;;;5065347;28;20959;-86
2022/02/12 12:22:41;;;;;;;0.90;0.73;;;;;;;;;;5050977;28;21070;-89
2022/02/12 12:25:08;;;;;;;1.98;0.90;;;;;;;;;;5072487;28;20459;-88
2022/02/12 12:27:36;;;;;;;1.10;0.80;;;;;;;;;;5083720;28;20497;-87
2022/02/12 12:32:59;;;;;;;1.48;0.70;;;;;;;;;;5073517;28;20560;-85
2022/02/12 12:35:26;;;;;;;1.55;0.85;;;;;;;;;;5085648;28;20440;-86
2022/02/12 12:37:55;;;;;;;1.87;0.80;;;;;;;;;;5088491;28;20421;-88
2022/02/12 12:40:30;;;;;;;3.72;1.10;;;;;;;;;;5077854;28;20398;-87
2022/02/12 12:43:05;;;;;;;52.30;28.25;;;;;;;;;;5083796;28;20412;-88
2022/02/12 12:45:32;;;;;;;137.68;68.95;;;;;;;;;;5092596;28;20397;-86
2022/02/12 12:47:59;;;;;;;52.23;30.63;;;;;;;;;;5056995;28;20398;-80
2022/02/12 12:50:26;;;;;;;3.15;1.42;;;;;;;;;;5066780;28;20417;-86
2022/02/12 12:53:04;;;;;;;1.48;1.08;;;;;;;;;;5066325;28;20472;-89
2022/02/12 12:55:31;;;;;;;4.97;1.10;;;;;;;;;;5065262;28;20410;-87
2022/02/12 12:58:00;;;;;;;1.73;0.98;;;;;;;;;;5065115;28;20407;-87
2022/02/12 13:00:29;;;;;;;2.05;0.70;;;;;;;;;;5058877;28;20410;-86
2022/02/12 13:02:57;;;;;;;1.60;0.80;;;;;;;;;;5059838;28;20940;-88
2022/02/12 13:05:26;;;;;;;2.00;0.90;;;;;;;;;;5057335;28;20406;-85
2022/02/12 13:07:56;;;;;;;1.58;0.80;;;;;;;;;;5059585;28;20410;-86
2022/02/12 13:10:24;;;;;;;1.75;0.80;;;;;;;;;;5057865;28;20410;-88
2022/02/12 13:12:52;;;;;;;1.30;0.95;;;;;;;;;;5059213;28;21850;-85
2022/02/12 13:15:24;;;;;;;1.30;0.65;;;;;;;;;;5060438;28;20782;-85
2022/02/12 13:17:54;;;;;;;2.30;0.90;;;;;;;;;;5057804;28;20405;-85
2022/02/12 13:20:24;;;;;;;4.30;3.60;;;;;;;;;;5062033;28;20413;-84
2022/02/12 13:22:55;;;;;;;1.15;0.80;;;;;;;;;;5058713;28;20468;-83
2022/02/12 13:25:22;;;;;;;1.00;0.80;;;;;;;;;;5062416;28;20892;-86
2022/02/12 13:27:50;;;;;;;1.38;0.75;;;;;;;;;;5058782;28;20421;-83
2022/02/12 13:30:23;;;;;;;1.05;0.80;;;;;;;;;;5059323;28;20434;-88
2022/02/12 13:32:52;;;;;;;3.92;1.45;;;;;;;;;;5059268;28;20402;-85
2022/02/12 13:35:22;;;;;;;1.75;0.80;;;;;;;;;;5063035;28;20429;-85
2022/02/12 13:37:52;;;;;;;1.80;1.08;;;;;;;;;;5057226;28;20464;-86
2022/02/12 13:40:23;;;;;;;1.73;1.20;;;;;;;;;;5062013;28;20402;-85
2022/02/12 13:42:53;;;;;;;2.55;1.00;;;;;;;;;;5062529;28;20521;-86
2022/02/12 13:45:22;;;;;;;1.15;1.05;;;;;;;;;;5061495;28;20407;-85
2022/02/12 13:47:50;;;;;;;1.70;1.00;;;;;;;;;;5045761;28;20413;-86
2022/02/12 13:50:23;;;;;;;1.90;1.00;;;;;;;;;;5062322;28;20459;-85
2022/02/12 13:52:58;;;;;;;1.75;0.80;;;;;;;;;;5062787;28;20434;-87
2022/02/12 13:55:26;;;;;;;2.05;0.90;;;;;;;;;;5061897;28;20406;-86
2022/02/12 13:57:53;;;;;;;1.40;1.02;;;;;;;;;;5063424;28;20913;-86
2022/02/12 14:00:21;;;;;;;1.65;1.10;;;;;;;;;;5064200;28;20816;-86
2022/02/12 14:02:49;;;;;;;2.03;1.10;;;;;;;;;;5063812;28;20516;-85
2022/02/12 14:05:16;;;;;;;1.35;1.10;;;;;;;;;;5062424;28;20456;-86
2022/02/12 14:07:45;;;;;;;1.10;1.00;;;;;;;;;;5062862;28;20414;-85
2022/02/12 14:10:13;;;;;;;3.30;1.00;;;;;;;;;;5062608;28;20398;-85
2022/02/12 14:12:40;;;;;;;2.07;1.00;;;;;;;;;;5063139;28;20386;-93
2022/02/12 14:15:09;;;;;;;2.38;1.10;;;;;;;;;;5057033;28;20417;-86
2022/02/12 14:17:35;;;;;;;3.10;1.40;;;;;;;;;;5063159;28;20480;-86
2022/02/12 14:20:02;;;;;;;1.40;1.20;;;;;;;;;;5063094;28;20414;-87
2022/02/12 14:22:29;;;;;;;1.45;1.13;;;;;;;;;;5062106;28;20402;-84
2022/02/12 14:24:58;;;;;;;2.08;1.00;;;;;;;;;;5064696;28;20398;-90
2022/02/12 14:27:25;;;;;;;1.88;1.40;;;;;;;;;;5063162;28;20417;-86
2022/02/12 14:29:52;;;;;;;1.23;1.00;;;;;;;;;;5066805;28;20401;-84
2022/02/12 14:32:21;;;;;;;1.33;1.00;;;;;;;;;;5067841;28;21176;-84
2022/02/12 14:34:48;;;;;;;1.90;1.20;;;;;;;;;;5067976;28;20493;-84
2022/02/12 14:37:15;;;;;;;2.03;1.10;;;;;;;;;;5065711;28;20516;-87
2022/02/12 14:39:42;;;;;;;1.70;1.10;;;;;;;;;;5066811;28;20547;-84
2022/02/12 14:42:10;;;;;;;2.20;1.60;;;;;;;;;;5063854;28;20413;-85
2022/02/12 14:44:37;;;;;;;4.68;1.55;;;;;;;;;;5067485;28;20467;-87
2022/02/12 14:47:04;;;;;;;2.95;1.67;;;;;;;;;;5067119;28;20961;-85
2022/02/12 14:49:31;;;;;;;2.22;1.40;;;;;;;;;;5065078;28;20410;-84